createdAt,value
2018-04-16T00:01:52.889Z,5.53
2018-04-16T00:04:21.297Z,5.62
2018-04-16T00:06:50.882Z,5.20
2018-04-16T00:09:18.543Z,5.00
2018-04-16T00:11:46.191Z,5.20
2018-04-16T00:14:13.844Z,4.90
2018-04-16T00:16:41.494Z,5.03
2018-04-16T00:19:09.177Z,5.43
2018-04-16T00:21:36.825Z,5.15
2018-04-16T00:24:04.495Z,5.57
2018-04-16T00:26:32.210Z,5.23
2018-04-16T00:28:59.860Z,5.50
2018-04-16T00:31:33.332Z,5.15
2018-04-16T00:34:06.703Z,5.37
2018-04-16T00:36:40.176Z,5.70
2018-04-16T00:39:13.604Z,5.10
2018-04-16T00:41:47.860Z,5.95
2018-04-16T00:44:21.002Z,5.53
2018-04-16T00:46:55.168Z,5.37
2018-04-16T00:49:29.331Z,5.28
2018-04-16T00:52:03.373Z,5.77
2018-04-16T00:54:36.741Z,5.00
2018-04-16T00:57:10.906Z,5.70
2018-04-16T00:59:44.378Z,5.57
2018-04-16T01:02:18.004Z,5.43
2018-04-16T01:04:51.443Z,5.53
2018-04-16T01:07:25.554Z,5.47
2018-04-16T01:09:59.053Z,5.97
2018-04-16T01:12:32.785Z,5.40
2018-04-16T01:15:06.800Z,5.87
2018-04-16T01:17:40.979Z,5.90
2018-04-16T01:20:14.389Z,5.85
2018-04-16T01:22:47.877Z,5.68
2018-04-16T01:28:21.993Z,5.72
2018-04-16T01:30:56.003Z,5.90
2018-04-16T01:33:29.349Z,5.80
2018-04-16T01:36:02.712Z,5.50
2018-04-16T01:38:37.205Z,5.90
2018-04-16T01:41:10.626Z,5.80
2018-04-16T01:43:44.021Z,6.22
2018-04-16T01:46:30.428Z,6.12
2018-04-16T01:49:04.421Z,6.20
2018-04-16T01:51:38.513Z,5.93
2018-04-16T01:54:12.081Z,6.07
2018-04-16T01:56:45.553Z,6.18
2018-04-16T01:59:19.500Z,6.53
2018-04-16T02:01:52.777Z,6.22
2018-04-16T02:04:26.863Z,6.60
2018-04-16T02:07:00.291Z,6.28
2018-04-16T02:09:33.582Z,6.12
2018-04-16T02:12:07.665Z,6.00
2018-04-16T02:14:41.017Z,6.40
2018-04-16T02:17:14.256Z,6.43
2018-04-16T02:19:47.681Z,6.03
2018-04-16T02:22:21.755Z,6.30
2018-04-16T02:24:55.081Z,6.55
2018-04-16T02:27:28.462Z,6.90
2018-04-16T02:30:01.795Z,6.97
2018-04-16T02:32:35.825Z,6.35
2018-04-16T02:35:09.075Z,6.50
2018-04-16T02:37:42.445Z,6.97
2018-04-16T02:40:15.640Z,6.83
2018-04-16T02:42:48.961Z,6.53
2018-04-16T02:45:23.099Z,6.85
2018-04-16T02:47:57.205Z,6.75
2018-04-16T02:50:31.256Z,6.77
2018-04-16T02:53:06.316Z,7.13
2018-04-16T02:55:39.555Z,6.65
2018-04-16T02:58:13.710Z,7.07
2018-04-16T03:00:46.950Z,6.97
2018-04-16T03:03:20.525Z,6.80
2018-04-16T03:08:54.686Z,7.18
2018-04-16T03:11:43.026Z,7.20
2018-04-16T03:14:17.023Z,7.30
2018-04-16T03:16:50.976Z,6.80
2018-04-16T03:19:24.355Z,7.57
2018-04-16T03:21:58.528Z,7.15
2018-04-16T03:24:33.554Z,7.22
2018-04-16T03:27:07.118Z,7.25
2018-04-16T03:29:40.539Z,7.40
2018-04-16T03:32:14.534Z,7.22
2018-04-16T03:34:47.972Z,7.05
2018-04-16T03:37:22.945Z,7.20
2018-04-16T03:39:57.206Z,6.50
2018-04-16T03:42:30.483Z,7.15
2018-04-16T03:45:03.798Z,6.85
2018-04-16T03:47:37.200Z,7.43
2018-04-16T03:50:10.711Z,7.12
2018-04-16T03:52:44.160Z,7.43
2018-04-16T03:55:17.699Z,7.12
2018-04-16T03:57:45.384Z,7.68
2018-04-16T04:00:13.880Z,7.65
2018-04-16T04:02:41.541Z,7.57
2018-04-16T04:05:10.105Z,7.00
2018-04-16T04:07:37.812Z,7.25
2018-04-16T04:10:06.377Z,7.15
2018-04-16T04:12:34.062Z,7.05
2018-04-16T04:15:01.744Z,6.95
2018-04-16T04:17:30.175Z,6.95
2018-04-16T04:19:57.911Z,7.43
2018-04-16T04:22:38.246Z,7.32
2018-04-16T04:25:17.767Z,7.15
2018-04-16T04:27:57.225Z,7.50
2018-04-16T04:30:32.469Z,6.90
2018-04-16T04:33:00.694Z,7.00
2018-04-16T04:35:28.349Z,6.82
2018-04-16T04:37:56.037Z,6.72
2018-04-16T04:40:23.719Z,6.70
2018-04-16T04:42:52.309Z,6.50
2018-04-16T04:45:19.996Z,6.90
2018-04-16T04:47:47.600Z,6.70
2018-04-16T04:50:16.165Z,6.47
2018-04-16T04:52:44.586Z,7.10
2018-04-16T04:55:12.201Z,6.68
2018-04-16T04:57:40.613Z,6.00
2018-04-16T05:00:08.433Z,6.47
2018-04-16T05:02:36.978Z,6.80
2018-04-16T05:05:04.671Z,6.70
2018-04-16T05:07:32.267Z,6.35
2018-04-16T05:10:00.482Z,6.65
2018-04-16T05:12:28.120Z,6.47
2018-04-16T05:14:56.565Z,6.90
2018-04-16T05:17:24.252Z,6.53
2018-04-16T05:19:51.876Z,6.85
2018-04-16T05:22:20.350Z,6.68
2018-04-16T05:24:48.014Z,7.57
2018-04-16T05:27:16.412Z,6.68
2018-04-16T05:29:44.074Z,6.53
2018-04-16T05:32:11.755Z,6.28
2018-04-16T05:34:39.399Z,7.10
2018-04-16T05:37:07.107Z,6.78
2018-04-16T05:39:35.571Z,7.35
2018-04-16T05:42:03.220Z,7.35
2018-04-16T05:44:30.920Z,6.87
2018-04-16T05:46:58.582Z,6.75
2018-04-16T05:49:26.521Z,6.62
2018-04-16T05:51:54.168Z,6.47
2018-04-16T05:54:21.840Z,6.30
2018-04-16T05:56:49.466Z,6.93
2018-04-16T05:59:17.101Z,6.72
2018-04-16T06:01:44.762Z,6.40
2018-04-16T06:04:12.376Z,6.70
2018-04-16T06:06:40.103Z,6.40
2018-04-16T06:09:08.581Z,6.95
2018-04-16T06:11:36.265Z,6.70
2018-04-16T06:14:03.946Z,6.95
2018-04-16T06:16:31.540Z,6.70
2018-04-16T06:18:59.371Z,6.80
2018-04-16T06:21:27.046Z,7.22
2018-04-16T06:23:55.149Z,6.75
2018-04-16T06:26:22.891Z,6.87
2018-04-16T06:28:50.534Z,6.50
2018-04-16T06:31:18.241Z,7.03
2018-04-16T06:33:45.871Z,7.43
2018-04-16T06:36:13.551Z,6.60
2018-04-16T06:38:41.175Z,7.20
2018-04-16T06:41:09.612Z,7.20
2018-04-16T06:43:37.241Z,7.37
2018-04-16T06:46:04.917Z,7.12
2018-04-16T06:48:32.544Z,7.22
2018-04-16T06:51:00.214Z,7.03
2018-04-16T06:53:27.824Z,6.75
2018-04-16T06:55:55.479Z,7.65
2018-04-16T06:58:23.997Z,7.07
2018-04-16T07:00:51.665Z,7.45
2018-04-16T07:03:19.501Z,7.20
2018-04-16T07:05:47.933Z,6.53
2018-04-16T07:08:15.616Z,7.18
2018-04-16T07:10:43.257Z,7.40
2018-04-16T07:13:11.118Z,7.03
2018-04-16T07:15:38.756Z,6.78
2018-04-16T07:18:07.174Z,7.28
2018-04-16T07:20:34.820Z,7.35
2018-04-16T07:23:02.478Z,7.20
2018-04-16T07:25:30.161Z,7.00
2018-04-16T07:27:58.402Z,7.37
2018-04-16T07:30:26.050Z,6.87
2018-04-16T07:32:54.467Z,6.80
2018-04-16T07:35:22.852Z,7.60
2018-04-16T07:37:50.527Z,7.35
2018-04-16T07:40:18.953Z,6.72
2018-04-16T07:42:46.617Z,7.50
2018-04-16T07:45:14.241Z,7.10
2018-04-16T07:47:41.903Z,7.32
2018-04-16T07:50:10.341Z,7.22
2018-04-16T07:52:38.005Z,6.87
2018-04-16T07:55:05.642Z,7.25
2018-04-16T07:57:33.332Z,7.45
2018-04-16T08:00:01.406Z,7.23
2018-04-16T08:02:29.085Z,6.83
2018-04-16T08:04:56.723Z,6.68
2018-04-16T08:07:24.464Z,6.75
2018-04-16T08:09:53.665Z,6.90
2018-04-16T08:12:21.368Z,7.10
2018-04-16T08:14:49.015Z,7.43
2018-04-16T08:17:16.651Z,7.10
2018-04-16T08:19:44.313Z,7.00
2018-04-16T08:22:12.001Z,6.90
2018-04-16T08:24:40.469Z,7.22
2018-04-16T08:27:08.966Z,7.50
2018-04-16T08:29:37.533Z,7.10
2018-04-16T08:32:05.203Z,6.90
2018-04-16T08:34:32.844Z,7.47
2018-04-16T08:37:01.403Z,7.12
2018-04-16T08:39:29.092Z,7.72
2018-04-16T08:41:56.748Z,7.65
2018-04-16T08:44:24.418Z,7.18
2018-04-16T08:46:52.107Z,7.70
2018-04-16T08:49:19.744Z,7.47
2018-04-16T08:51:47.419Z,7.55
2018-04-16T08:54:15.090Z,7.47
2018-04-16T08:56:42.714Z,7.30
2018-04-16T08:59:10.398Z,7.18
2018-04-16T09:01:38.804Z,7.45
2018-04-16T09:04:06.473Z,6.97
2018-04-16T09:06:34.136Z,6.72
2018-04-16T09:09:01.901Z,8.05
2018-04-16T09:11:29.535Z,7.18
2018-04-16T09:13:58.391Z,7.80
2018-04-16T09:16:26.336Z,7.10
2018-04-16T09:18:54.075Z,7.13
2018-04-16T09:21:23.699Z,7.15
2018-04-16T09:23:52.261Z,7.07
2018-04-16T09:26:21.368Z,7.30
2018-04-16T09:28:49.878Z,7.13
2018-04-16T09:31:17.959Z,7.10
2018-04-16T09:33:45.736Z,7.30
2018-04-16T09:36:13.460Z,7.22
2018-04-16T09:38:42.371Z,7.30
2018-04-16T09:41:10.824Z,7.43
2018-04-16T09:43:38.501Z,7.15
2018-04-16T09:46:06.240Z,7.32
2018-04-16T09:48:33.885Z,7.22
2018-04-16T09:51:01.522Z,8.13
2018-04-16T09:53:29.157Z,7.73
2018-04-16T09:55:56.810Z,7.28
2018-04-16T09:58:24.466Z,7.20
2018-04-16T10:00:52.184Z,7.65
2018-04-16T10:03:23.206Z,6.82
2018-04-16T10:05:51.432Z,7.53
2018-04-16T10:08:19.073Z,7.07
2018-04-16T10:10:46.716Z,6.75
2018-04-16T10:13:14.340Z,6.60
2018-04-16T10:15:41.975Z,7.00
2018-04-16T10:18:09.968Z,7.20
2018-04-16T10:20:38.370Z,7.53
2018-04-16T10:23:06.551Z,6.65
2018-04-16T10:25:34.211Z,6.90
2018-04-16T10:28:01.849Z,6.97
2018-04-16T10:30:29.557Z,6.95
2018-04-16T10:32:57.201Z,6.70
2018-04-16T10:35:25.622Z,6.90
2018-04-16T10:37:53.367Z,6.40
2018-04-16T10:40:21.987Z,7.25
2018-04-16T10:42:49.698Z,7.22
2018-04-16T10:45:17.350Z,6.80
2018-04-16T10:47:45.023Z,6.82
2018-04-16T10:50:13.925Z,6.47
2018-04-16T10:52:42.366Z,6.57
2018-04-16T10:55:10.602Z,6.82
2018-04-16T10:57:39.026Z,6.47
2018-04-16T11:00:06.689Z,6.43
2018-04-16T11:02:35.206Z,6.45
2018-04-16T11:05:02.869Z,6.28
2018-04-16T11:07:30.544Z,6.93
2018-04-16T11:09:58.155Z,6.37
2018-04-16T11:12:25.898Z,6.22
2018-04-16T11:14:53.585Z,6.18
2018-04-16T11:17:22.010Z,6.72
2018-04-16T11:19:49.733Z,5.78
2018-04-16T11:22:17.412Z,6.22
2018-04-16T11:24:45.935Z,6.32
2018-04-16T11:27:13.626Z,5.75
2018-04-16T11:29:41.315Z,5.97
2018-04-16T11:32:08.957Z,5.85
2018-04-16T11:34:36.712Z,5.68
2018-04-16T11:37:04.387Z,5.50
2018-04-16T11:39:32.056Z,5.53
2018-04-16T11:41:59.720Z,5.32
2018-04-16T11:44:27.341Z,5.55
2018-04-16T11:46:55.030Z,5.25
2018-04-16T11:49:23.045Z,5.28
2018-04-16T11:51:51.647Z,4.93
2018-04-16T11:54:20.121Z,5.03
2018-04-16T11:56:49.065Z,5.10
2018-04-16T11:59:16.740Z,4.80
2018-04-16T12:01:44.562Z,5.18
2018-04-16T12:04:12.968Z,5.15
2018-04-16T12:06:40.618Z,5.10
2018-04-16T12:09:08.387Z,4.63
2018-04-16T12:11:36.952Z,5.07
2018-04-16T12:14:04.650Z,5.28
2018-04-16T12:16:32.344Z,4.90
2018-04-16T12:19:00.161Z,5.05
2018-04-16T12:21:27.905Z,4.90
2018-04-16T12:23:56.442Z,4.50
2018-04-16T12:26:24.153Z,4.47
2018-04-16T12:28:51.855Z,4.82
2018-04-16T12:31:19.688Z,4.50
2018-04-16T12:33:48.566Z,4.90
2018-04-16T12:36:16.364Z,4.20
2018-04-16T12:38:44.035Z,4.72
2018-04-16T12:41:11.711Z,5.10
2018-04-16T12:43:41.832Z,4.55
2018-04-16T12:46:09.920Z,4.93
2018-04-16T12:48:38.255Z,4.83
2018-04-16T12:51:05.914Z,4.33
2018-04-16T12:53:33.771Z,4.75
2018-04-16T12:56:01.490Z,4.80
2018-04-16T12:58:29.286Z,4.30
2018-04-16T13:00:56.983Z,4.57
2018-04-16T13:03:24.609Z,4.60
2018-04-16T13:05:52.290Z,4.28
2018-04-16T13:08:20.772Z,4.57
2018-04-16T13:10:48.528Z,4.57
2018-04-16T13:13:16.196Z,4.72
2018-04-16T13:15:44.055Z,4.72
2018-04-16T13:18:11.734Z,4.80
2018-04-16T13:20:40.271Z,4.72
2018-04-16T13:23:08.175Z,4.57
2018-04-16T13:25:35.865Z,4.95
2018-04-16T13:28:03.563Z,4.85
2018-04-16T13:30:32.050Z,4.70
2018-04-16T13:32:59.742Z,4.62
2018-04-16T13:35:27.433Z,4.80
2018-04-16T13:37:55.126Z,4.90
2018-04-16T13:40:22.767Z,5.20
2018-04-16T13:42:50.454Z,4.62
2018-04-16T13:45:18.796Z,4.87
2018-04-16T13:47:46.493Z,5.05
2018-04-16T13:50:14.989Z,4.90
2018-04-16T13:52:42.933Z,4.80
2018-04-16T13:55:10.748Z,5.13
2018-04-16T13:57:38.404Z,4.95
2018-04-16T14:00:06.101Z,5.30
2018-04-16T14:02:33.910Z,5.25
2018-04-16T14:05:01.610Z,6.15
2018-04-16T14:07:30.133Z,5.72
2018-04-16T14:09:57.890Z,5.70
2018-04-16T14:12:25.603Z,6.43
2018-04-16T14:14:53.293Z,5.80
2018-04-16T14:17:21.695Z,5.95
2018-04-16T14:19:49.603Z,5.72
2018-04-16T14:22:17.325Z,5.93
2018-04-16T14:24:45.835Z,5.82
2018-04-16T14:27:13.533Z,5.80
2018-04-16T14:29:41.255Z,5.90
2018-04-16T14:32:09.708Z,5.70
2018-04-16T14:34:37.884Z,6.47
2018-04-16T14:37:05.632Z,6.10
2018-04-16T14:39:34.023Z,5.72
2018-04-16T14:42:01.757Z,5.73
2018-04-16T14:44:29.401Z,6.15
2018-04-16T14:46:58.499Z,5.97
2018-04-16T14:49:26.882Z,6.37
2018-04-16T14:51:54.555Z,5.80
2018-04-16T14:54:22.340Z,6.50
2018-04-16T14:56:50.731Z,6.30
2018-04-16T14:59:18.357Z,5.85
2018-04-16T15:01:46.833Z,5.80
2018-04-16T15:04:14.503Z,6.70
2018-04-16T15:06:43.007Z,6.40
2018-04-16T15:09:12.011Z,6.45
2018-04-16T15:11:39.721Z,6.00
2018-04-16T15:14:07.395Z,6.45
2018-04-16T15:16:35.022Z,6.53
2018-04-16T15:19:02.694Z,6.37
2018-04-16T15:21:30.375Z,7.15
2018-04-16T15:23:58.081Z,7.10
2018-04-16T15:26:25.730Z,7.15
2018-04-16T15:28:53.576Z,7.62
2018-04-16T15:31:21.236Z,7.22
2018-04-16T15:33:49.705Z,7.12
2018-04-16T15:36:18.815Z,7.60
2018-04-16T15:38:46.457Z,7.62
2018-04-16T15:41:14.138Z,7.00
2018-04-16T15:43:41.794Z,7.32
2018-04-16T15:46:09.769Z,7.50
2018-04-16T15:48:37.514Z,7.90
2018-04-16T15:51:05.467Z,7.72
2018-04-16T15:53:33.234Z,7.65
2018-04-16T15:56:00.983Z,7.57
2018-04-16T15:58:28.586Z,8.02
2018-04-16T16:00:56.964Z,7.82
2018-04-16T16:03:24.605Z,8.40
2018-04-16T16:05:52.284Z,7.75
2018-04-16T16:08:19.905Z,8.00
2018-04-16T16:10:48.946Z,7.75
2018-04-16T16:13:17.138Z,7.45
2018-04-16T16:15:44.978Z,7.62
2018-04-16T16:18:12.628Z,7.82
2018-04-16T16:20:41.775Z,8.15
2018-04-16T16:23:10.238Z,7.85
2018-04-16T16:25:38.039Z,8.32
2018-04-16T16:28:05.717Z,8.18
2018-04-16T16:30:33.376Z,8.47
2018-04-16T16:33:01.103Z,8.77
2018-04-16T16:35:28.749Z,8.45
2018-04-16T16:37:56.426Z,8.65
2018-04-16T16:40:24.690Z,8.70
2018-04-16T16:42:52.450Z,8.93
2018-04-16T16:45:20.874Z,8.93
2018-04-16T16:47:48.655Z,9.20
2018-04-16T16:50:16.288Z,8.05
2018-04-16T16:52:44.732Z,8.35
2018-04-16T16:55:12.343Z,8.98
2018-04-16T16:57:40.020Z,8.63
2018-04-16T17:00:09.229Z,9.13
2018-04-16T17:02:37.137Z,8.93
2018-04-16T17:05:04.774Z,9.25
2018-04-16T17:07:33.395Z,8.43
2018-04-16T17:10:01.110Z,8.85
2018-04-16T17:12:29.542Z,8.87
2018-04-16T17:14:57.228Z,8.60
2018-04-16T17:17:24.940Z,8.83
2018-04-16T17:19:54.105Z,9.50
2018-04-16T17:22:22.558Z,8.80
2018-04-16T17:24:50.258Z,8.75
2018-04-16T17:27:19.837Z,9.73
2018-04-16T17:29:47.500Z,9.02
2018-04-16T17:32:15.184Z,8.75
2018-04-16T17:34:42.895Z,9.38
2018-04-16T17:37:11.292Z,9.35
2018-04-16T17:39:39.004Z,8.98
2018-04-16T17:42:06.663Z,9.15
2018-04-16T17:44:34.356Z,10.05
2018-04-16T17:47:02.824Z,10.15
2018-04-16T17:49:30.506Z,9.43
2018-04-16T17:51:58.937Z,9.82
2018-04-16T17:54:26.627Z,9.63
2018-04-16T17:56:55.088Z,9.55
2018-04-16T17:59:22.770Z,9.98
2018-04-16T18:01:50.450Z,10.38
2018-04-16T18:04:18.107Z,9.87
2018-04-16T18:06:45.796Z,10.20
2018-04-16T18:09:13.680Z,10.05
2018-04-16T18:11:41.323Z,9.73
2018-04-16T18:14:08.960Z,9.93
2018-04-16T18:16:36.701Z,10.35
2018-04-16T18:19:04.392Z,10.43
2018-04-16T18:21:32.148Z,10.45
2018-04-16T18:24:00.570Z,10.27
2018-04-16T18:26:28.270Z,10.10
2018-04-16T18:28:56.183Z,9.98
2018-04-16T18:31:23.895Z,10.43
2018-04-16T18:33:51.589Z,10.77
2018-04-16T18:36:20.062Z,10.30
2018-04-16T18:38:47.730Z,9.98
2018-04-16T18:41:15.848Z,10.07
2018-04-16T18:43:45.433Z,10.60
2018-04-16T18:46:13.147Z,10.40
2018-04-16T18:48:41.570Z,10.23
2018-04-16T18:51:09.321Z,10.60
2018-04-16T18:53:37.280Z,10.43
2018-04-16T18:56:05.080Z,10.23
2018-04-16T18:58:34.243Z,10.57
2018-04-16T19:01:02.099Z,10.10
2018-04-16T19:03:31.151Z,10.95
2018-04-16T19:05:58.852Z,10.80
2018-04-16T19:08:26.528Z,11.10
2018-04-16T19:10:54.262Z,10.82
2018-04-16T19:13:21.958Z,10.80
2018-04-16T19:15:50.049Z,10.68
2018-04-16T19:18:18.505Z,11.18
2018-04-16T19:20:51.909Z,10.85
2018-04-16T19:23:19.629Z,11.57
2018-04-16T19:25:47.357Z,11.18
2018-04-16T19:28:20.016Z,11.07
2018-04-16T19:30:47.751Z,11.12
2018-04-16T19:33:22.077Z,10.43
2018-04-16T19:35:50.444Z,10.35
2018-04-16T19:38:20.671Z,10.70
2018-04-16T19:40:48.630Z,10.70
2018-04-16T19:43:16.362Z,10.95
2018-04-16T19:45:44.965Z,10.63
2018-04-16T19:48:12.735Z,10.50
2018-04-16T19:50:41.623Z,10.18
2018-04-16T19:53:09.423Z,10.90
2018-04-16T20:09:04.797Z,10.18
2018-04-16T20:11:32.416Z,9.95
2018-04-16T20:14:00.104Z,11.12
2018-04-16T20:16:28.487Z,10.25
2018-04-16T20:18:56.176Z,9.90
2018-04-16T20:21:23.869Z,10.13
2018-04-16T20:23:52.269Z,10.52
2018-04-16T20:26:20.093Z,9.55
2018-04-16T20:28:48.480Z,9.70
2018-04-16T20:31:16.977Z,10.60
2018-04-16T20:33:45.399Z,10.00
2018-04-16T20:36:13.289Z,9.75
2018-04-16T20:38:41.118Z,10.38
2018-04-16T20:41:10.414Z,10.63
2018-04-16T20:43:38.083Z,10.18
2018-04-16T20:46:05.803Z,9.93
2018-04-16T20:48:33.510Z,10.57
2018-04-16T20:51:01.199Z,9.68
2018-04-16T20:53:28.906Z,10.40
2018-04-16T20:55:56.549Z,10.57
2018-04-16T20:58:24.264Z,10.07
2018-04-16T21:00:51.964Z,10.43
2018-04-16T21:03:20.417Z,10.50
2018-04-16T21:05:48.120Z,10.55
2018-04-16T21:08:15.790Z,10.73
2018-04-16T21:10:44.474Z,11.43
2018-04-16T21:13:12.985Z,11.10
2018-04-16T21:15:41.268Z,10.70
2018-04-16T21:18:09.073Z,11.45
2018-04-16T21:20:36.797Z,11.00
2018-04-16T21:23:04.542Z,11.10
2018-04-16T21:25:33.030Z,10.45
2018-04-16T21:28:01.649Z,11.17
2018-04-16T21:30:29.361Z,11.75
2018-04-16T21:32:57.813Z,10.93
2018-04-16T21:35:25.562Z,11.55
2018-04-16T21:37:53.315Z,12.23
2018-04-16T21:40:21.300Z,11.52
2018-04-16T21:42:49.271Z,11.93
2018-04-16T21:45:17.765Z,11.77
2018-04-16T21:47:46.225Z,11.63
2018-04-16T21:50:13.933Z,11.48
2018-04-16T21:52:41.645Z,12.02
2018-04-16T21:55:10.350Z,12.00
2018-04-16T21:57:38.105Z,12.18
2018-04-16T22:00:06.567Z,12.50
2018-04-16T22:02:34.292Z,11.38
2018-04-16T22:05:02.752Z,12.40
2018-04-16T22:07:30.584Z,12.48
2018-04-16T22:09:58.364Z,11.73
2018-04-16T22:12:26.128Z,11.70
2018-04-16T22:14:53.831Z,11.33
2018-04-16T22:17:21.590Z,11.85
2018-04-16T22:19:49.305Z,11.95
2018-04-16T22:22:17.055Z,11.85
2018-04-16T22:24:45.602Z,12.37
2018-04-16T22:27:13.553Z,11.85
2018-04-16T22:29:41.301Z,11.45
2018-04-16T22:32:09.036Z,12.37
2018-04-16T22:34:36.777Z,12.45
2018-04-16T22:37:04.540Z,12.63
2018-04-16T22:39:33.110Z,12.95
2018-04-16T22:42:00.859Z,12.10
2018-04-16T22:44:28.567Z,12.95
2018-04-16T22:46:56.852Z,12.95
2018-04-16T22:49:24.582Z,12.68
2018-04-16T22:51:52.307Z,11.90
2018-04-16T22:54:20.010Z,12.10
2018-04-16T22:56:48.508Z,12.48
2018-04-16T22:59:16.200Z,12.70
2018-04-16T23:01:43.932Z,12.43
2018-04-16T23:04:11.779Z,12.65
2018-04-16T23:06:40.163Z,11.88
2018-04-16T23:09:07.878Z,12.13
2018-04-16T23:11:35.563Z,12.18
2018-04-16T23:14:03.467Z,11.77
2018-04-16T23:16:31.144Z,12.30
2018-04-16T23:18:59.692Z,12.30
2018-04-16T23:21:27.405Z,12.05
2018-04-16T23:23:55.894Z,11.40
2018-04-16T23:26:24.391Z,11.75
2018-04-16T23:28:52.849Z,11.73
2018-04-16T23:31:20.576Z,12.65
2018-04-16T23:33:48.258Z,11.85
2018-04-16T23:36:16.149Z,12.23
2018-04-16T23:38:43.830Z,11.98
2018-04-16T23:41:12.281Z,12.52
2018-04-16T23:43:40.078Z,11.23
2018-04-16T23:46:07.742Z,12.48
2018-04-16T23:48:35.530Z,11.82
2018-04-16T23:51:03.231Z,12.48
2018-04-16T23:53:30.931Z,11.82
2018-04-16T23:55:58.605Z,12.18
2018-04-16T23:58:26.321Z,11.43
